createdAt,value
2018-12-16T12:48:48.427Z,101281.67
2018-12-16T12:50:23.369Z,100285.22
2018-12-16T12:51:58.395Z,100292.09
2018-12-16T12:53:33.349Z,100281.92
2018-12-16T12:55:08.607Z,100282.02
2018-12-16T12:56:43.602Z,100282.88
2018-12-16T12:58:18.766Z,100275.97
2018-12-16T12:59:53.795Z,100274.51
2018-12-16T13:01:29.004Z,100279.53
2018-12-16T13:03:04.950Z,100273.52
2018-12-16T13:04:40.200Z,100268.66
2018-12-16T13:06:15.267Z,100276.98
2018-12-16T13:07:50.435Z,100276.75
2018-12-16T13:09:25.731Z,100274.89
2018-12-16T13:11:00.885Z,100280.69
2018-12-16T13:12:35.959Z,100279.20
2018-12-16T13:14:11.074Z,100279.50
2018-12-16T13:15:46.237Z,100282.81
2018-12-16T13:17:21.491Z,100291.63
2018-12-16T13:18:56.520Z,100290.66
2018-12-16T13:20:31.979Z,100277.57
2018-12-16T13:22:08.072Z,100283.44
2018-12-16T13:23:43.217Z,100290.69
2018-12-16T13:25:35.762Z,100284.13
2018-12-16T13:27:10.980Z,100291.71
2018-12-16T13:28:46.167Z,100295.92
2018-12-16T13:30:21.142Z,100290.78
2018-12-16T13:31:56.112Z,100293.33
2018-12-16T13:33:31.197Z,100286.59
2018-12-16T13:35:06.488Z,100296.16
2018-12-16T13:36:41.501Z,100298.59
2018-12-16T13:38:17.139Z,100292.19
2018-12-16T13:39:52.132Z,100302.72
2018-12-16T13:41:27.120Z,100293.05
2018-12-16T13:43:02.070Z,100298.27
2018-12-16T13:44:37.056Z,100299.95
2018-12-16T13:46:14.919Z,100296.53
2018-12-16T13:47:49.905Z,100293.14
2018-12-16T13:49:24.905Z,100290.70
2018-12-16T13:50:59.932Z,100297.75
2018-12-16T13:52:34.985Z,100294.88
2018-12-16T13:54:10.056Z,100287.52
2018-12-16T13:55:45.012Z,100296.31
2018-12-16T13:57:20.043Z,100294.67
2018-12-16T13:58:55.028Z,100306.44
2018-12-16T14:00:30.000Z,100312.40
2018-12-16T14:02:04.964Z,100302.06
2018-12-16T14:03:39.980Z,100307.56
2018-12-16T14:05:14.953Z,100312.03
2018-12-16T14:06:49.932Z,100316.23
2018-12-16T14:08:24.923Z,100314.25
2018-12-16T14:09:59.996Z,100300.53
2018-12-16T14:11:34.990Z,100307.71
2018-12-16T14:13:09.963Z,100305.98
2018-12-16T14:14:45.231Z,100312.02
2018-12-16T14:16:20.458Z,100300.50
2018-12-16T14:17:55.408Z,100295.86
2018-12-16T14:19:30.392Z,100297.48
2018-12-16T14:21:05.340Z,100296.92
2018-12-16T14:22:40.371Z,100298.37
2018-12-16T14:24:15.268Z,100293.23
2018-12-16T14:25:50.321Z,100301.30
2018-12-16T14:27:25.259Z,100303.42
2018-12-16T14:29:00.284Z,100297.45
2018-12-16T14:30:35.229Z,100295.62
2018-12-16T14:32:10.193Z,100291.84
2018-12-16T14:33:45.131Z,100293.33
2018-12-16T14:35:20.392Z,100296.30
2018-12-16T14:36:55.371Z,100298.78
2018-12-16T14:38:30.529Z,100298.50
2018-12-16T14:40:06.833Z,100301.06
2018-12-16T14:41:41.865Z,100295.19
2018-12-16T14:43:16.801Z,100295.94
2018-12-16T14:44:51.765Z,100293.59
2018-12-16T14:46:26.757Z,100301.11
2018-12-16T14:48:01.779Z,100295.55
2018-12-16T14:49:36.741Z,100292.33
2018-12-16T14:51:11.704Z,100287.94
2018-12-16T14:52:46.688Z,100287.62
2018-12-16T14:54:21.732Z,100286.88
2018-12-16T14:55:56.686Z,100286.88
2018-12-16T14:57:31.667Z,100281.73
2018-12-16T14:59:06.631Z,100274.29
2018-12-16T15:00:41.624Z,100278.84
2018-12-16T15:02:16.557Z,100277.07
2018-12-16T15:03:51.501Z,100274.08
2018-12-16T15:05:26.565Z,100273.48
2018-12-16T15:07:01.606Z,100271.73
2018-12-16T15:08:36.712Z,100272.84
2018-12-16T15:10:12.667Z,100269.61
2018-12-16T15:11:47.607Z,100273.38
2018-12-16T15:13:22.636Z,100269.51
2018-12-16T15:14:57.840Z,100269.56
2018-12-16T15:16:32.915Z,100275.22
2018-12-16T15:18:07.908Z,100274.81
2018-12-16T15:19:42.932Z,100274.33
2018-12-16T15:21:17.836Z,100277.23
2018-12-16T15:22:52.755Z,100280.99
2018-12-16T15:24:27.701Z,100276.87
2018-12-16T15:26:02.709Z,100286.38
2018-12-16T15:27:37.669Z,100284.48
2018-12-16T15:29:12.639Z,100284.75
2018-12-16T15:30:47.600Z,100282.69
2018-12-16T15:32:22.628Z,100277.22
2018-12-16T15:33:57.616Z,100284.80
2018-12-16T15:35:32.583Z,100289.94
2018-12-16T15:37:07.544Z,100280.02
2018-12-16T15:38:42.571Z,100273.83
2018-12-16T15:40:17.488Z,100267.43
2018-12-16T15:41:52.488Z,100276.22
2018-12-16T15:43:27.476Z,100269.65
2018-12-16T15:45:02.392Z,100273.30
2018-12-16T15:46:37.331Z,100268.19
2018-12-16T15:48:12.282Z,100271.63
2018-12-16T15:49:47.537Z,100265.31
2018-12-16T15:51:22.464Z,100270.17
2018-12-16T15:52:57.399Z,100272.33
2018-12-16T15:54:32.357Z,100271.01
2018-12-16T15:56:09.445Z,100268.26
2018-12-16T15:57:44.497Z,100269.73
2018-12-16T15:59:19.691Z,100272.69
2018-12-16T16:00:54.655Z,100275.45
2018-12-16T16:02:29.689Z,100271.52
2018-12-16T16:04:04.691Z,100277.67
2018-12-16T16:05:39.697Z,100287.45
2018-12-16T16:07:14.638Z,100285.88
2018-12-16T16:08:49.653Z,100278.39
2018-12-16T16:10:24.621Z,100284.14
2018-12-16T16:11:59.604Z,100282.38
2018-12-16T16:13:34.559Z,100285.14
2018-12-16T16:15:10.135Z,100288.84
2018-12-16T16:16:45.063Z,100295.63
2018-12-16T16:18:20.147Z,100292.30
2018-12-16T16:19:55.128Z,100299.28
2018-12-16T16:21:30.186Z,100294.42
2018-12-16T16:23:06.792Z,100301.06
2018-12-16T16:24:42.096Z,100298.79
2018-12-16T16:26:17.064Z,100297.69
2018-12-16T16:27:52.065Z,100291.38
2018-12-16T16:29:28.971Z,100296.19
2018-12-16T16:31:06.498Z,100297.47
2018-12-16T16:32:41.555Z,100289.58
2018-12-16T16:34:16.585Z,100303.50
2018-12-16T16:35:51.555Z,100309.60
2018-12-16T16:37:26.583Z,100305.09
2018-12-16T16:39:01.564Z,100304.80
2018-12-16T16:40:36.835Z,100311.02
2018-12-16T16:42:11.787Z,100312.49
2018-12-16T16:43:46.804Z,100309.59
2018-12-16T16:45:21.785Z,100304.66
2018-12-16T16:46:56.854Z,100306.19
2018-12-16T16:48:31.791Z,100300.29
2018-12-16T16:50:07.088Z,100309.62
2018-12-16T16:51:42.054Z,100312.44
2018-12-16T16:53:17.041Z,100313.34
2018-12-16T16:54:52.065Z,100315.92
2018-12-16T16:56:27.077Z,100312.48
2018-12-16T16:58:02.048Z,100316.73
2018-12-16T16:59:37.053Z,100313.81
2018-12-16T17:01:12.033Z,100314.88
2018-12-16T17:02:46.976Z,100323.08
2018-12-16T17:04:21.963Z,100328.17
2018-12-16T17:05:57.033Z,100326.58
2018-12-16T17:07:32.001Z,100324.72
2018-12-16T17:09:09.084Z,100335.95
2018-12-16T17:10:44.039Z,100337.23
2018-12-16T17:12:19.099Z,100335.97
2018-12-16T17:13:55.121Z,100342.53
2018-12-16T17:15:30.079Z,100341.38
2018-12-16T17:17:05.348Z,100347.00
2018-12-16T17:18:40.494Z,100347.40
2018-12-16T17:20:15.445Z,100348.84
2018-12-16T17:21:50.615Z,100348.03
2018-12-16T17:23:25.589Z,100346.32
2018-12-16T17:25:00.642Z,100360.72
2018-12-16T17:26:35.610Z,100354.08
2018-12-16T17:28:10.628Z,100353.38
2018-12-16T17:29:45.573Z,100360.95
2018-12-16T17:31:20.605Z,100354.52
2018-12-16T17:32:55.584Z,100357.84
2018-12-16T17:34:30.567Z,100360.29
2018-12-16T17:36:05.550Z,100358.64
2018-12-16T17:37:40.636Z,100360.02
2018-12-16T17:39:15.615Z,100365.28
2018-12-16T17:40:50.592Z,100366.93
2018-12-16T17:42:25.797Z,100366.55
2018-12-16T17:44:00.850Z,100365.98
2018-12-16T17:45:35.826Z,100361.77
2018-12-16T17:47:10.889Z,100361.14
2018-12-16T17:48:45.994Z,100366.48
2018-12-16T17:50:21.023Z,100357.74
2018-12-16T17:51:56.064Z,100363.19
2018-12-16T17:53:31.060Z,100367.64
2018-12-16T17:55:08.079Z,100367.41
2018-12-16T17:56:43.944Z,100372.04
2018-12-16T17:58:18.896Z,100369.40
2018-12-16T17:59:53.851Z,100373.47
2018-12-16T18:01:28.857Z,100368.88
2018-12-16T18:03:03.965Z,100374.23
2018-12-16T18:04:45.485Z,100379.31
2018-12-16T18:06:20.516Z,100379.22
2018-12-16T18:07:55.491Z,100375.63
2018-12-16T18:09:30.504Z,100380.23
2018-12-16T18:11:05.520Z,100382.63
2018-12-16T18:12:40.502Z,100382.30
2018-12-16T18:14:15.481Z,100385.59
2018-12-16T18:15:50.480Z,100386.39
2018-12-16T18:17:25.400Z,100393.33
2018-12-16T18:19:00.340Z,100387.25
2018-12-16T18:20:35.299Z,100389.40
2018-12-16T18:22:13.973Z,100393.16
2018-12-16T18:23:47.546Z,100390.19
2018-12-16T18:25:22.502Z,100388.78
2018-12-16T18:26:57.464Z,100390.20
2018-12-16T18:28:32.491Z,100391.38
2018-12-16T18:30:09.996Z,100390.79
2018-12-16T18:31:44.921Z,100390.91
2018-12-16T18:33:20.384Z,100391.00
2018-12-16T18:34:55.500Z,100396.20
2018-12-16T18:36:30.431Z,100397.41
2018-12-16T18:38:05.423Z,100399.84
2018-12-16T18:39:40.487Z,100394.34
2018-12-16T18:41:16.404Z,100405.66
2018-12-16T18:42:51.341Z,100400.05
2018-12-16T18:44:26.394Z,100403.50
2018-12-16T18:46:01.449Z,100404.97
2018-12-16T18:47:36.497Z,100406.13
2018-12-16T18:49:11.756Z,100406.55
2018-12-16T18:50:46.719Z,100403.01
2018-12-16T18:52:21.688Z,100403.43
2018-12-16T18:53:56.757Z,100405.45
2018-12-16T18:55:31.721Z,100406.24
2018-12-16T18:57:07.339Z,100404.88
2018-12-16T18:58:42.604Z,100403.60
2018-12-16T19:00:17.651Z,100400.47
2018-12-16T19:01:52.618Z,100400.10
2018-12-16T19:03:27.743Z,100394.92
2018-12-16T19:05:02.736Z,100398.69
2018-12-16T19:06:37.752Z,100401.31
2018-12-16T19:08:12.743Z,100403.97
2018-12-16T19:09:47.763Z,100405.56
2018-12-16T19:11:22.738Z,100408.45
2018-12-16T19:12:57.865Z,100405.66
2018-12-16T19:14:33.282Z,100405.70
2018-12-16T19:16:08.235Z,100406.83
2018-12-16T19:17:43.164Z,100410.52
2018-12-16T19:19:18.515Z,100402.06
2018-12-16T19:20:53.510Z,100403.23
2018-12-16T19:22:28.499Z,100397.52
2018-12-16T19:24:03.434Z,100395.97
2018-12-16T19:25:38.475Z,100400.74
2018-12-16T19:27:13.455Z,100400.63
2018-12-16T19:28:49.345Z,100395.35
2018-12-16T19:30:24.353Z,100391.55
2018-12-16T19:31:59.863Z,100392.92
2018-12-16T19:33:34.803Z,100387.14
2018-12-16T19:35:10.582Z,100382.44
2018-12-16T19:36:45.499Z,100388.58
2018-12-16T19:38:20.507Z,100382.28
2018-12-16T19:39:55.915Z,100377.88
2018-12-16T19:41:31.119Z,100379.52
2018-12-16T19:43:06.285Z,100377.30
2018-12-16T19:44:41.429Z,100379.48
2018-12-16T19:46:16.409Z,100381.28
2018-12-16T19:47:52.082Z,100376.78
2018-12-16T19:49:27.150Z,100378.37
2018-12-16T19:51:02.124Z,100379.27
2018-12-16T19:52:37.081Z,100384.28
2018-12-16T19:54:12.172Z,100383.75
2018-12-16T19:55:47.222Z,100383.38
2018-12-16T19:57:22.181Z,100382.73
2018-12-16T19:58:57.566Z,100386.23
2018-12-16T20:00:34.980Z,100388.44
2018-12-16T20:02:10.027Z,100382.37
2018-12-16T20:03:50.240Z,100383.53
2018-12-16T20:05:25.339Z,100375.73
2018-12-16T20:07:00.320Z,100377.86
2018-12-16T20:08:35.296Z,100376.53
2018-12-16T20:10:10.273Z,100376.95
2018-12-16T20:11:45.351Z,100384.36
2018-12-16T20:13:20.348Z,100385.88
2018-12-16T20:14:55.428Z,100389.42
2018-12-16T20:16:30.371Z,100388.26
2018-12-16T20:18:05.381Z,100392.70
2018-12-16T20:19:40.927Z,100385.04
2018-12-16T20:21:15.923Z,100393.81
2018-12-16T20:22:50.983Z,100394.39
2018-12-16T20:24:26.310Z,100398.47
2018-12-16T20:26:01.498Z,100398.52
2018-12-16T20:27:36.618Z,100399.58
2018-12-16T20:29:11.576Z,100394.70
2018-12-16T20:30:46.622Z,100390.38
2018-12-16T20:32:22.057Z,100402.28
2018-12-16T20:33:57.027Z,100404.98
2018-12-16T20:35:32.838Z,100394.81
2018-12-16T20:37:07.898Z,100402.39
2018-12-16T20:38:43.249Z,100401.44
2018-12-16T20:40:18.528Z,100404.02
2018-12-16T20:41:53.734Z,100403.02
2018-12-16T20:43:28.752Z,100404.51
2018-12-16T20:45:04.449Z,100409.99
2018-12-16T20:46:39.423Z,100414.77
2018-12-16T20:48:14.628Z,100406.92
2018-12-16T20:49:49.581Z,100403.46
2018-12-16T20:51:24.874Z,100404.00
2018-12-16T20:52:59.806Z,100407.66
2018-12-16T20:54:35.249Z,100404.26
2018-12-16T20:56:10.214Z,100401.25
2018-12-16T20:57:45.332Z,100412.09
2018-12-16T20:59:20.401Z,100408.41
2018-12-16T21:00:55.471Z,100405.73
2018-12-16T21:02:30.549Z,100406.43
2018-12-16T21:04:05.644Z,100406.39
2018-12-16T21:05:40.939Z,100408.12
2018-12-16T21:07:16.074Z,100403.78
2018-12-16T21:08:51.363Z,100397.38
2018-12-16T21:10:26.518Z,100399.36
2018-12-16T21:12:04.445Z,100409.11
2018-12-16T21:13:44.601Z,100406.34
2018-12-16T21:15:54.154Z,100411.55
2018-12-16T21:17:34.224Z,100414.25
2018-12-16T21:19:09.431Z,100403.34
2018-12-16T21:20:44.411Z,100411.33
2018-12-16T21:22:19.481Z,100411.00
2018-12-16T21:23:54.547Z,100411.65
2018-12-16T21:25:29.546Z,100403.23
2018-12-16T21:27:05.126Z,100404.55
2018-12-16T21:28:40.125Z,100406.45
2018-12-16T21:30:15.207Z,100404.77
2018-12-16T21:31:50.200Z,100403.02
2018-12-16T21:33:25.372Z,100401.67
2018-12-16T21:35:00.333Z,100411.63
2018-12-16T21:36:35.339Z,100403.70
2018-12-16T21:38:10.460Z,100401.62
2018-12-16T21:39:45.522Z,100404.91
2018-12-16T21:41:22.895Z,100401.03
2018-12-16T21:42:57.879Z,100400.88
2018-12-16T21:44:32.847Z,100397.70
2018-12-16T21:46:08.107Z,100398.22
2018-12-16T21:47:43.136Z,100406.49
2018-12-16T21:49:18.193Z,100399.77
2018-12-16T21:50:56.003Z,100408.55
2018-12-16T21:52:31.059Z,100406.11
2018-12-16T21:54:06.015Z,100407.44
2018-12-16T21:55:42.609Z,100405.72
2018-12-16T21:57:18.529Z,100406.56
2018-12-16T21:58:53.647Z,100402.32
2018-12-16T22:00:28.620Z,100410.88
2018-12-16T22:02:03.673Z,100405.30
2018-12-16T22:03:38.646Z,100406.83
2018-12-16T22:05:14.813Z,100411.42
2018-12-16T22:06:49.752Z,100407.08
2018-12-16T22:08:24.781Z,100409.56
2018-12-16T22:09:59.728Z,100402.63
2018-12-16T22:11:34.696Z,100415.03
2018-12-16T22:13:09.656Z,100413.46
2018-12-16T22:14:44.628Z,100413.09
2018-12-16T22:16:19.605Z,100414.25
2018-12-16T22:17:54.610Z,100415.00
2018-12-16T22:19:29.564Z,100416.16
2018-12-16T22:21:04.588Z,100416.87
2018-12-16T22:22:39.746Z,100409.31
2018-12-16T22:24:14.686Z,100411.32
2018-12-16T22:25:49.692Z,100413.06
2018-12-16T22:27:24.692Z,100415.65
2018-12-16T22:28:59.666Z,100416.34
2018-12-16T22:30:34.577Z,100418.02
2018-12-16T22:32:09.529Z,100421.16
2018-12-16T22:33:44.565Z,100420.08
2018-12-16T22:35:19.554Z,100428.30
2018-12-16T22:36:54.475Z,100418.58
2018-12-16T22:38:29.487Z,100421.61
2018-12-16T22:40:04.964Z,100422.89
2018-12-16T22:41:40.114Z,100424.37
2018-12-16T22:43:15.033Z,100426.84
2018-12-16T22:44:49.960Z,100429.45
2018-12-16T22:46:31.828Z,100427.92
2018-12-16T22:48:06.799Z,100423.20
2018-12-16T22:49:41.735Z,100426.33
2018-12-16T22:51:16.704Z,100431.88
2018-12-16T22:52:51.744Z,100425.94
2018-12-16T22:54:26.756Z,100422.48
2018-12-16T22:56:01.683Z,100421.84
2018-12-16T22:57:36.652Z,100423.59
2018-12-16T22:59:11.651Z,100424.08
2018-12-16T23:00:52.521Z,100417.38
2018-12-16T23:02:27.419Z,100418.28
2018-12-16T23:04:02.372Z,100419.19
2018-12-16T23:05:37.364Z,100415.30
2018-12-16T23:07:12.340Z,100415.84
2018-12-16T23:08:47.335Z,100409.98
2018-12-16T23:10:22.311Z,100411.76
2018-12-16T23:11:57.377Z,100413.39
2018-12-16T23:13:32.399Z,100422.08
2018-12-16T23:15:08.995Z,100417.16
2018-12-16T23:16:44.013Z,100419.27
2018-12-16T23:18:18.963Z,100415.06
2018-12-16T23:19:59.020Z,100411.47
2018-12-16T23:21:33.936Z,100412.00
2018-12-16T23:23:08.855Z,100407.73
2018-12-16T23:24:44.033Z,100407.17
2018-12-16T23:26:19.072Z,100407.63
2018-12-16T23:27:54.572Z,100403.50
2018-12-16T23:29:29.512Z,100399.41
2018-12-16T23:31:04.464Z,100397.98
2018-12-16T23:32:39.433Z,100407.05
2018-12-16T23:34:14.396Z,100402.91
2018-12-16T23:35:49.324Z,100410.05
2018-12-16T23:37:24.291Z,100398.27
2018-12-16T23:38:59.337Z,100407.89
2018-12-16T23:40:34.345Z,100410.95
2018-12-16T23:42:09.296Z,100409.95
2018-12-16T23:43:44.308Z,100408.00
2018-12-16T23:45:19.270Z,100410.05
2018-12-16T23:46:54.245Z,100415.14
2018-12-16T23:48:29.224Z,100414.17
2018-12-16T23:50:04.756Z,100406.59
2018-12-16T23:51:39.943Z,100402.14
2018-12-16T23:53:14.953Z,100411.90
2018-12-16T23:54:52.125Z,100420.08
2018-12-16T23:56:27.093Z,100422.46
2018-12-16T23:58:02.108Z,100421.66
2018-12-16T23:59:37.529Z,100423.30
